Time;durP1;ratioP1;P1;durP2;ratioP2;P2;SDS_P1;SDS_P2;PMS_P1;PMS_P2;Temp;Humidity;BMP_temperature;BMP_pressure;BME280_temperature;BME280_humidity;BME280_pressure;Samples;Min_cycle;Max_cycle;Signal;HPM_P1;HPM_P2
2022/01/27 00:02:33;;;;;;;51.58;28.38;;;;;;;;;;5111670;28;20043;-65
2022/01/27 00:07:42;;;;;;;49.53;27.35;;;;;;;;;;5112471;28;20399;-66
2022/01/27 00:10:28;;;;;;;50.40;26.95;;;;;;;;;;5112078;28;20036;-65
2022/01/27 00:12:55;;;;;;;47.60;27.45;;;;;;;;;;5112071;28;20050;-65
2022/01/27 00:15:29;;;;;;;50.30;27.38;;;;;;;;;;5111951;28;20093;-65
2022/01/27 00:18:02;;;;;;;47.05;24.80;;;;;;;;;;5112142;28;20391;-65
2022/01/27 00:20:28;;;;;;;49.00;25.95;;;;;;;;;;5112103;28;20046;-65
2022/01/27 00:22:54;;;;;;;51.10;26.98;;;;;;;;;;5111037;28;20118;-65
2022/01/27 00:25:20;;;;;;;49.65;26.98;;;;;;;;;;5111977;28;20042;-64
2022/01/27 00:27:47;;;;;;;48.67;25.60;;;;;;;;;;5112957;28;20066;-64
2022/01/27 00:30:13;;;;;;;45.55;23.33;;;;;;;;;;5112903;28;20082;-65
2022/01/27 00:32:40;;;;;;;39.20;21.17;;;;;;;;;;5112287;28;20427;-65
2022/01/27 00:35:06;;;;;;;48.95;26.67;;;;;;;;;;5112484;28;20042;-65
2022/01/27 00:37:33;;;;;;;48.15;26.98;;;;;;;;;;5094367;28;20035;-65
2022/01/27 00:39:59;;;;;;;47.33;25.67;;;;;;;;;;5112473;28;20511;-66
2022/01/27 00:42:26;;;;;;;47.35;26.00;;;;;;;;;;5112397;28;20061;-66
2022/01/27 00:44:53;;;;;;;51.95;27.42;;;;;;;;;;5112298;28;20040;-65
2022/01/27 00:47:19;;;;;;;50.85;28.63;;;;;;;;;;5112431;28;20055;-65
2022/01/27 00:49:45;;;;;;;48.45;26.05;;;;;;;;;;5112520;28;20043;-66
2022/01/27 00:52:16;;;;;;;49.58;27.33;;;;;;;;;;5112455;28;20096;-66
2022/01/27 00:54:45;;;;;;;47.50;26.88;;;;;;;;;;5112590;28;20557;-65
2022/01/27 00:57:38;;;;;;;45.90;24.08;;;;;;;;;;5112640;28;20504;-66
2022/01/27 01:00:03;;;;;;;46.65;26.70;;;;;;;;;;5111772;28;20123;-66
2022/01/27 01:05:33;;;;;;;43.45;25.15;;;;;;;;;;5095685;28;20047;-65
2022/01/27 01:07:50;;;;;;;43.47;26.00;;;;;;;;;;5110863;28;20126;-65
2022/01/27 01:11:03;;;;;;;43.15;24.15;;;;;;;;;;5112337;28;20079;-65
2022/01/27 01:15:50;;;;;;;46.92;25.73;;;;;;;;;;5111938;28;20050;-65
2022/01/27 01:34:28;;;;;;;45.90;25.38;;;;;;;;;;5113837;28;20051;-66
2022/01/27 01:39:24;;;;;;;46.22;25.42;;;;;;;;;;5094343;28;20532;-64
2022/01/27 01:41:50;;;;;;;41.72;25.05;;;;;;;;;;5097742;28;20043;-64
2022/01/27 01:44:16;;;;;;;40.35;23.88;;;;;;;;;;5115573;28;20047;-64
2022/01/27 01:46:42;;;;;;;41.97;23.58;;;;;;;;;;5116946;28;20127;-65
2022/01/27 01:49:08;;;;;;;37.80;22.30;;;;;;;;;;5101942;28;20038;-63
2022/01/27 01:51:35;;;;;;;34.15;20.45;;;;;;;;;;5110232;28;20411;-63
2022/01/27 01:54:02;;;;;;;43.03;23.55;;;;;;;;;;5115384;28;20122;-65
2022/01/27 01:56:29;;;;;;;43.00;22.10;;;;;;;;;;5115291;28;20046;-65
2022/01/27 01:58:55;;;;;;;41.63;23.67;;;;;;;;;;5115162;27;20031;-66
2022/01/27 02:01:21;;;;;;;39.30;23.88;;;;;;;;;;5115007;28;20032;-66
2022/01/27 02:03:48;;;;;;;38.30;23.02;;;;;;;;;;5115217;28;20119;-66
2022/01/27 02:06:25;;;;;;;40.00;23.83;;;;;;;;;;5115119;28;20047;-64
2022/01/27 02:19:45;;;;;;;42.20;22.13;;;;;;;;;;5136187;22;20142;-64
2022/01/27 02:22:11;;;;;;;36.55;22.17;;;;;;;;;;5123321;22;20055;-67
2022/01/27 02:24:37;;;;;;;42.17;22.88;;;;;;;;;;5116015;28;20093;-65
2022/01/27 02:27:04;;;;;;;35.83;22.75;;;;;;;;;;5115990;28;20046;-63
2022/01/27 02:29:30;;;;;;;40.97;22.70;;;;;;;;;;5097077;28;20043;-64
2022/01/27 02:31:59;;;;;;;40.47;22.88;;;;;;;;;;5114298;28;20044;-67
2022/01/27 02:34:28;;;;;;;39.25;24.77;;;;;;;;;;5115060;28;20105;-66
2022/01/27 02:36:54;;;;;;;42.65;24.25;;;;;;;;;;5096836;28;20155;-63
2022/01/27 02:39:22;;;;;;;45.97;23.45;;;;;;;;;;5095564;28;20043;-64
2022/01/27 02:41:51;;;;;;;42.30;23.60;;;;;;;;;;5113822;28;20502;-61
2022/01/27 02:44:32;;;;;;;40.38;24.35;;;;;;;;;;5114242;28;20050;-64
2022/01/27 02:46:58;;;;;;;40.88;23.20;;;;;;;;;;5113082;28;20039;-63
2022/01/27 02:49:24;;;;;;;39.78;22.60;;;;;;;;;;5113967;28;20050;-63
2022/01/27 02:51:51;;;;;;;39.60;23.75;;;;;;;;;;5113506;28;20039;-65
2022/01/27 02:54:17;;;;;;;41.65;23.40;;;;;;;;;;5113689;28;20032;-64
2022/01/27 02:56:46;;;;;;;39.13;21.58;;;;;;;;;;5113742;28;20127;-63
2022/01/27 02:59:13;;;;;;;40.13;23.13;;;;;;;;;;5113625;28;20040;-64
2022/01/27 03:01:39;;;;;;;44.33;24.55;;;;;;;;;;5113879;28;20042;-63
2022/01/27 03:04:05;;;;;;;39.25;22.33;;;;;;;;;;5113726;28;20047;-63
2022/01/27 03:06:31;;;;;;;38.55;23.05;;;;;;;;;;5113680;28;20047;-63
2022/01/27 03:08:57;;;;;;;37.67;22.23;;;;;;;;;;5113305;28;20036;-63
2022/01/27 03:11:35;;;;;;;42.72;23.45;;;;;;;;;;5113132;28;20039;-64
2022/01/27 03:14:01;;;;;;;37.60;21.92;;;;;;;;;;5112998;28;20115;-64
2022/01/27 03:16:27;;;;;;;38.90;23.40;;;;;;;;;;5109097;28;20378;-63
2022/01/27 03:18:53;;;;;;;33.80;20.90;;;;;;;;;;5110871;28;20032;-63
2022/01/27 03:21:19;;;;;;;41.17;21.75;;;;;;;;;;5113007;28;20035;-63
2022/01/27 03:23:46;;;;;;;39.05;23.13;;;;;;;;;;5113308;28;20380;-63
2022/01/27 03:26:12;;;;;;;38.13;22.00;;;;;;;;;;5112794;28;20096;-64
2022/01/27 03:28:38;;;;;;;39.35;22.88;;;;;;;;;;5112976;28;20043;-65
2022/01/27 03:31:04;;;;;;;39.55;21.23;;;;;;;;;;5094563;28;20035;-64
2022/01/27 03:33:30;;;;;;;43.55;23.15;;;;;;;;;;5112796;28;20065;-64
2022/01/27 03:35:56;;;;;;;31.83;19.70;;;;;;;;;;5112741;28;20036;-64
2022/01/27 03:38:22;;;;;;;40.67;22.83;;;;;;;;;;5112363;28;20094;-64
2022/01/27 03:40:48;;;;;;;36.42;21.52;;;;;;;;;;5112266;28;20035;-64
2022/01/27 03:43:14;;;;;;;37.35;21.55;;;;;;;;;;5112618;28;20046;-63
2022/01/27 03:45:40;;;;;;;36.47;19.98;;;;;;;;;;5112531;28;20063;-64
2022/01/27 03:48:07;;;;;;;40.38;22.80;;;;;;;;;;5112820;28;20465;-64
2022/01/27 03:50:33;;;;;;;34.22;19.73;;;;;;;;;;5112776;28;20472;-63
2022/01/27 03:53:00;;;;;;;36.53;21.85;;;;;;;;;;5112343;28;20050;-63
2022/01/27 03:55:26;;;;;;;38.35;21.45;;;;;;;;;;5112191;28;20430;-63
2022/01/27 03:57:52;;;;;;;42.42;21.75;;;;;;;;;;5112017;28;20036;-64
2022/01/27 04:00:18;;;;;;;44.00;23.00;;;;;;;;;;5112231;28;20035;-63
2022/01/27 04:03:19;;;;;;;44.33;22.50;;;;;;;;;;5112396;28;20541;-63
2022/01/27 04:05:40;;;;;;;38.42;20.60;;;;;;;;;;5108139;28;20043;-65
2022/01/27 04:08:07;;;;;;;45.53;23.52;;;;;;;;;;5094128;28;20051;-62
2022/01/27 04:10:33;;;;;;;41.33;23.25;;;;;;;;;;5112178;28;20046;-64
2022/01/27 04:13:00;;;;;;;43.55;22.60;;;;;;;;;;5112072;28;20043;-64
2022/01/27 04:15:26;;;;;;;42.20;23.90;;;;;;;;;;5112154;28;20039;-63
2022/01/27 04:17:52;;;;;;;41.05;21.70;;;;;;;;;;5112077;28;20039;-63
2022/01/27 04:20:19;;;;;;;40.38;21.45;;;;;;;;;;5112223;28;20480;-63
2022/01/27 04:22:45;;;;;;;38.70;23.23;;;;;;;;;;5111535;28;20529;-64
2022/01/27 04:25:12;;;;;;;38.97;21.85;;;;;;;;;;5111726;28;20039;-64
2022/01/27 04:27:42;;;;;;;36.78;21.55;;;;;;;;;;5112208;28;20040;-63
2022/01/27 04:30:15;;;;;;;39.10;22.85;;;;;;;;;;5112235;28;20047;-64
2022/01/27 04:32:47;;;;;;;38.60;22.33;;;;;;;;;;5111734;28;20159;-63
2022/01/27 04:35:16;;;;;;;39.65;22.38;;;;;;;;;;5112141;28;20384;-63
2022/01/27 04:37:54;;;;;;;39.13;21.70;;;;;;;;;;5113380;28;20049;-65
2022/01/27 04:40:26;;;;;;;37.88;22.00;;;;;;;;;;5124262;22;20055;-84
2022/01/27 04:46:21;;;;;;;39.08;22.25;;;;;;;;;;5055833;28;20113;-84
2022/01/27 04:49:03;;;;;;;37.72;21.13;;;;;;;;;;5105975;28;20411;-85
2022/01/27 05:42:04;;;;;;;38.13;19.92;;;;;;;;;;5080715;28;20044;-84
2022/01/27 05:44:33;;;;;;;36.28;19.63;;;;;;;;;;5080888;28;20063;-84
2022/01/27 05:46:59;;;;;;;49.70;24.02;;;;;;;;;;5081489;28;20040;-84
2022/01/27 05:49:25;;;;;;;37.83;18.58;;;;;;;;;;5063408;28;20542;-84
2022/01/27 05:51:51;;;;;;;54.05;30.33;;;;;;;;;;5063829;28;20036;-84
2022/01/27 05:54:17;;;;;;;43.13;23.52;;;;;;;;;;5079783;28;20032;-84
2022/01/27 05:56:43;;;;;;;33.55;19.10;;;;;;;;;;5079736;28;20045;-84
2022/01/27 05:59:09;;;;;;;34.78;20.00;;;;;;;;;;5061442;28;20063;-84
2022/01/27 06:01:35;;;;;;;35.03;20.02;;;;;;;;;;5054748;28;20072;-85
2022/01/27 06:04:01;;;;;;;43.25;20.60;;;;;;;;;;5057656;28;20048;-84
2022/01/27 06:06:27;;;;;;;39.40;21.42;;;;;;;;;;5039813;28;20523;-85
2022/01/27 06:08:53;;;;;;;36.70;19.38;;;;;;;;;;5039947;28;20048;-85
2022/01/27 06:11:19;;;;;;;36.65;21.05;;;;;;;;;;5058324;28;20132;-81
2022/01/27 06:13:45;;;;;;;38.38;21.70;;;;;;;;;;5042747;28;20044;-85
2022/01/27 06:16:12;;;;;;;41.22;21.95;;;;;;;;;;5056915;28;20036;-84
2022/01/27 06:18:38;;;;;;;39.22;23.10;;;;;;;;;;5038376;28;20044;-85
2022/01/27 06:21:06;;;;;;;42.63;21.92;;;;;;;;;;5036395;28;20037;-84
2022/01/27 06:23:32;;;;;;;41.97;22.75;;;;;;;;;;5054131;28;20060;-85
2022/01/27 06:26:02;;;;;;;43.85;21.20;;;;;;;;;;5054116;28;20041;-85
2022/01/27 06:28:28;;;;;;;43.25;24.27;;;;;;;;;;5054987;28;20466;-85
2022/01/27 06:30:54;;;;;;;41.88;22.52;;;;;;;;;;5053949;28;20068;-85
2022/01/27 06:33:22;;;;;;;40.72;22.98;;;;;;;;;;5055267;28;20052;-84
2022/01/27 06:35:48;;;;;;;41.42;22.85;;;;;;;;;;5055879;28;20040;-84
2022/01/27 06:38:14;;;;;;;46.72;24.52;;;;;;;;;;5039673;28;20044;-85
2022/01/27 06:40:40;;;;;;;51.90;26.10;;;;;;;;;;5040766;28;20119;-85
2022/01/27 06:43:06;;;;;;;47.53;23.98;;;;;;;;;;5058487;28;20043;-84
2022/01/27 06:45:32;;;;;;;56.35;26.10;;;;;;;;;;5057269;28;20044;-84
2022/01/27 06:47:58;;;;;;;53.45;25.75;;;;;;;;;;5040218;28;20040;-84
2022/01/27 06:50:24;;;;;;;50.63;25.75;;;;;;;;;;5055691;28;20408;-84
2022/01/27 06:52:50;;;;;;;46.88;23.40;;;;;;;;;;5055208;28;20052;-85
2022/01/27 06:55:17;;;;;;;35.67;20.83;;;;;;;;;;5038183;28;20041;-84
2022/01/27 06:57:46;;;;;;;43.00;23.13;;;;;;;;;;5053934;28;20514;-84
2022/01/27 07:00:13;;;;;;;54.92;26.10;;;;;;;;;;5039397;28;20043;-84
2022/01/27 07:02:39;;;;;;;45.53;23.52;;;;;;;;;;5039278;28;20132;-84
2022/01/27 07:05:05;;;;;;;54.20;25.58;;;;;;;;;;5055302;28;20139;-84
2022/01/27 07:07:31;;;;;;;50.65;25.88;;;;;;;;;;5055694;28;20044;-84
2022/01/27 07:09:57;;;;;;;46.70;24.73;;;;;;;;;;5048697;28;20025;-84
2022/01/27 07:12:23;;;;;;;46.95;24.17;;;;;;;;;;5081154;28;20028;-84
2022/01/27 07:14:49;;;;;;;46.83;24.63;;;;;;;;;;5069083;28;20128;-84
2022/01/27 07:17:17;;;;;;;38.08;21.35;;;;;;;;;;5057020;28;20123;-84
2022/01/27 07:19:43;;;;;;;41.88;23.98;;;;;;;;;;5056638;28;20051;-84
2022/01/27 07:22:09;;;;;;;46.47;23.60;;;;;;;;;;5055578;28;20497;-84
2022/01/27 07:24:35;;;;;;;45.60;23.55;;;;;;;;;;5038848;28;20047;-84
2022/01/27 07:27:01;;;;;;;47.30;23.13;;;;;;;;;;5055884;28;20036;-84
2022/01/27 07:29:27;;;;;;;42.08;22.63;;;;;;;;;;5038597;28;20407;-85
2022/01/27 07:31:53;;;;;;;40.33;22.15;;;;;;;;;;5055126;28;20041;-85
2022/01/27 07:34:19;;;;;;;48.47;26.33;;;;;;;;;;5055242;28;20109;-85
2022/01/27 07:36:45;;;;;;;47.30;23.25;;;;;;;;;;5042624;28;20036;-85
2022/01/27 07:39:16;;;;;;;44.13;24.48;;;;;;;;;;5064283;28;20044;-86
2022/01/27 07:41:44;;;;;;;38.72;21.75;;;;;;;;;;5055663;28;20055;-85
2022/01/27 07:48:44;;;;;;;37.25;19.75;;;;;;;;;;5015742;28;20102;-85
2022/01/27 07:51:04;;;;;;;35.78;20.25;;;;;;;;;;4993230;28;20457;-87
2022/01/27 07:53:42;;;;;;;38.40;20.45;;;;;;;;;;5043614;28;20043;-84
2022/01/27 07:56:11;;;;;;;36.80;21.88;;;;;;;;;;5043651;28;20044;-85
2022/01/27 07:58:43;;;;;;;32.63;16.10;;;;;;;;;;5039985;28;20039;-85
2022/01/27 08:01:09;;;;;;;34.42;19.23;;;;;;;;;;5057517;28;20076;-85
2022/01/27 08:03:38;;;;;;;31.05;18.00;;;;;;;;;;5041306;28;20109;-85
2022/01/27 08:06:04;;;;;;;27.17;16.85;;;;;;;;;;5057883;28;20446;-85
2022/01/27 08:08:36;;;;;;;27.25;14.55;;;;;;;;;;5041382;28;20102;-85
2022/01/27 08:11:02;;;;;;;31.95;18.73;;;;;;;;;;5041102;28;20052;-85
2022/01/27 08:13:28;;;;;;;32.92;19.73;;;;;;;;;;5058283;28;20116;-84
2022/01/27 08:15:54;;;;;;;30.27;18.35;;;;;;;;;;5057591;28;20073;-85
2022/01/27 08:18:21;;;;;;;30.35;18.25;;;;;;;;;;5041244;28;20119;-85
2022/01/27 08:20:48;;;;;;;30.55;17.98;;;;;;;;;;5041466;28;20266;-85
2022/01/27 08:23:15;;;;;;;30.40;18.90;;;;;;;;;;5060025;28;20040;-85
2022/01/27 08:25:41;;;;;;;34.83;19.35;;;;;;;;;;5056597;28;20044;-85
2022/01/27 08:28:19;;;;;;;36.30;19.27;;;;;;;;;;5041237;28;20045;-85
2022/01/27 08:30:48;;;;;;;35.55;21.13;;;;;;;;;;5040598;28;20051;-85
2022/01/27 08:33:17;;;;;;;36.42;21.45;;;;;;;;;;5056728;28;20123;-85
2022/01/27 08:35:43;;;;;;;38.03;21.90;;;;;;;;;;5056429;28;20123;-85
2022/01/27 08:38:36;;;;;;;46.80;25.05;;;;;;;;;;5047840;28;20063;-85
2022/01/27 08:41:04;;;;;;;45.97;24.90;;;;;;;;;;5040279;28;20083;-85
2022/01/27 08:43:30;;;;;;;47.28;24.23;;;;;;;;;;5079697;28;20037;-85
2022/01/27 08:45:57;;;;;;;48.53;24.58;;;;;;;;;;5073608;28;20041;-85
2022/01/27 08:48:23;;;;;;;41.20;20.73;;;;;;;;;;5058913;28;20403;-84
2022/01/27 08:50:59;;;;;;;49.42;23.80;;;;;;;;;;5059001;28;20055;-85
2022/01/27 08:53:26;;;;;;;50.03;23.98;;;;;;;;;;5042150;28;20036;-85
2022/01/27 08:55:52;;;;;;;50.20;25.25;;;;;;;;;;5058891;28;20045;-85
2022/01/27 08:58:18;;;;;;;55.33;24.50;;;;;;;;;;5059666;28;20036;-85
2022/01/27 09:00:44;;;;;;;48.15;25.13;;;;;;;;;;5059254;28;20046;-85
2022/01/27 09:03:34;;;;;;;45.97;23.60;;;;;;;;;;5043252;28;20032;-85
2022/01/27 09:06:01;;;;;;;39.30;22.17;;;;;;;;;;5042548;28;20044;-85
2022/01/27 09:08:29;;;;;;;45.35;22.63;;;;;;;;;;5060221;28;20500;-84
2022/01/27 09:11:02;;;;;;;45.92;21.98;;;;;;;;;;5061338;28;20051;-84
2022/01/27 09:13:55;;;;;;;40.65;18.70;;;;;;;;;;5062337;28;20101;-84
2022/01/27 09:16:26;;;;;;;41.10;19.25;;;;;;;;;;5061839;28;20040;-85
2022/01/27 09:18:56;;;;;;;34.55;17.35;;;;;;;;;;5045286;28;20048;-84
2022/01/27 09:24:53;;;;;;;41.80;18.50;;;;;;;;;;5078279;28;20067;-85
2022/01/27 09:27:21;;;;;;;35.28;17.15;;;;;;;;;;5062011;28;20094;-85
2022/01/27 09:29:48;;;;;;;38.78;18.45;;;;;;;;;;5061696;28;20036;-85
2022/01/27 09:32:18;;;;;;;35.60;17.65;;;;;;;;;;5061285;28;20036;-85
2022/01/27 09:35:01;;;;;;;37.78;17.65;;;;;;;;;;5044930;28;20053;-84
2022/01/27 09:37:39;;;;;;;40.08;17.92;;;;;;;;;;5075053;28;20049;-84
2022/01/27 09:40:07;;;;;;;35.42;17.80;;;;;;;;;;5045027;28;20058;-85
2022/01/27 09:52:41;;;;;;;30.30;15.18;;;;;;;;;;5079310;28;20089;-83
2022/01/27 09:58:53;;;;;;;26.65;12.65;;;;;;;;;;5062495;28;20370;-83
2022/01/27 10:05:16;;;;;;;22.65;12.10;;;;;;;;;;5081357;28;20388;-84
2022/01/27 10:14:54;;;;;;;25.10;11.30;;;;;;;;;;5055626;28;20113;-83
2022/01/27 10:20:44;;;;;;;31.35;15.82;;;;;;;;;;5079813;28;20092;-84
2022/01/27 10:23:13;;;;;;;24.55;11.20;;;;;;;;;;5044334;28;20036;-84
2022/01/27 10:26:03;;;;;;;21.90;11.05;;;;;;;;;;5043942;28;20040;-83
2022/01/27 10:29:13;;;;;;;25.75;10.50;;;;;;;;;;5078587;28;20119;-83
2022/01/27 10:32:21;;;;;;;23.98;10.60;;;;;;;;;;5077595;28;20066;-84
2022/01/27 10:38:50;;;;;;;28.73;13.23;;;;;;;;;;5016016;28;20041;-84
2022/01/27 10:41:53;;;;;;;27.40;12.57;;;;;;;;;;5000565;28;20461;-85
2022/01/27 10:48:36;;;;;;;23.40;9.63;;;;;;;;;;4960150;28;20087;-84
2022/01/27 10:51:19;;;;;;;19.98;10.20;;;;;;;;;;5015663;28;20588;-84
2022/01/27 10:54:00;;;;;;;23.55;9.38;;;;;;;;;;5060013;28;20048;-84
2022/01/27 10:57:28;;;;;;;24.75;10.07;;;;;;;;;;5072403;28;20047;-84
2022/01/27 11:00:14;;;;;;;24.48;10.18;;;;;;;;;;5041779;28;20456;-84
2022/01/27 11:03:03;;;;;;;18.95;10.45;;;;;;;;;;5057908;28;20055;-85
2022/01/27 11:05:30;;;;;;;23.80;10.20;;;;;;;;;;5058344;28;20123;-85
2022/01/27 11:07:56;;;;;;;20.77;11.00;;;;;;;;;;5055620;28;20043;-85
2022/01/27 11:10:22;;;;;;;23.80;10.20;;;;;;;;;;5038984;28;20049;-85
2022/01/27 11:12:50;;;;;;;20.90;9.68;;;;;;;;;;5052576;28;20107;-84
2022/01/27 11:15:17;;;;;;;21.75;9.27;;;;;;;;;;5080941;28;20047;-85
2022/01/27 11:17:44;;;;;;;20.35;10.07;;;;;;;;;;5049464;28;20045;-85
2022/01/27 11:20:26;;;;;;;23.67;10.10;;;;;;;;;;5058735;28;20075;-85
2022/01/27 11:27:50;;;;;;;16.67;8.73;;;;;;;;;;5057290;28;20083;-84
2022/01/27 11:30:25;;;;;;;21.92;10.27;;;;;;;;;;5040428;28;20519;-84
2022/01/27 11:32:54;;;;;;;15.75;9.52;;;;;;;;;;5040685;28;20044;-84
2022/01/27 11:35:22;;;;;;;18.33;7.70;;;;;;;;;;5057760;28;20562;-85
2022/01/27 11:38:12;;;;;;;18.25;8.00;;;;;;;;;;5059072;28;20040;-85
2022/01/27 12:15:49;;;;;;;15.48;4.70;;;;;;;;;;4997359;28;20084;-85
2022/01/27 12:19:17;;;;;;;14.73;4.95;;;;;;;;;;4977801;28;20478;-84
2022/01/27 12:26:43;;;;;;;10.95;4.30;;;;;;;;;;4938777;29;20107;-85
2022/01/27 12:46:27;;;;;;;10.55;3.72;;;;;;;;;;4871263;29;20077;-84
2022/01/27 12:49:04;;;;;;;20.05;5.10;;;;;;;;;;4929592;28;20050;-84
2022/01/27 12:52:15;;;;;;;14.55;4.30;;;;;;;;;;4972179;28;20086;-84
2022/01/27 12:54:48;;;;;;;15.55;4.57;;;;;;;;;;4956544;28;20137;-84
2022/01/27 12:57:40;;;;;;;16.40;4.90;;;;;;;;;;5025006;28;20041;-85
2022/01/27 13:00:28;;;;;;;13.23;4.70;;;;;;;;;;5017678;28;20567;-84
2022/01/27 13:03:00;;;;;;;11.50;3.35;;;;;;;;;;5000203;28;20040;-85
2022/01/27 13:05:50;;;;;;;10.07;4.45;;;;;;;;;;5028183;28;20046;-84
2022/01/27 13:08:51;;;;;;;11.90;3.65;;;;;;;;;;5073876;28;20125;-84
2022/01/27 13:11:40;;;;;;;11.07;3.65;;;;;;;;;;5092829;28;20051;-84
2022/01/27 13:14:19;;;;;;;10.75;3.40;;;;;;;;;;5075495;28;20400;-83
2022/01/27 13:16:53;;;;;;;11.13;3.25;;;;;;;;;;5055767;28;20051;-84
2022/01/27 13:19:40;;;;;;;14.32;3.42;;;;;;;;;;5078397;28;20047;-84
2022/01/27 13:22:27;;;;;;;17.20;3.70;;;;;;;;;;5042498;28;20086;-84
2022/01/27 13:24:53;;;;;;;19.05;4.32;;;;;;;;;;5043995;28;20049;-84
2022/01/27 13:27:19;;;;;;;13.30;3.67;;;;;;;;;;5044320;28;20052;-84
2022/01/27 13:29:46;;;;;;;15.38;3.75;;;;;;;;;;5059252;28;20127;-84
2022/01/27 13:32:43;;;;;;;13.52;3.95;;;;;;;;;;5060791;28;20049;-84
2022/01/27 13:35:10;;;;;;;14.07;4.05;;;;;;;;;;5043891;28;20045;-84
2022/01/27 13:37:38;;;;;;;12.63;4.45;;;;;;;;;;5042188;28;20039;-85
2022/01/27 13:42:58;;;;;;;12.45;3.92;;;;;;;;;;5079389;28;20032;-84
2022/01/27 13:45:44;;;;;;;12.60;3.78;;;;;;;;;;5077728;28;20124;-84
2022/01/27 13:48:30;;;;;;;10.35;4.20;;;;;;;;;;5062167;28;20040;-84
2022/01/27 13:51:45;;;;;;;15.35;3.72;;;;;;;;;;4997172;28;20041;-85
2022/01/27 13:54:11;;;;;;;13.73;3.47;;;;;;;;;;5077830;28;20055;-84
2022/01/27 13:56:57;;;;;;;15.88;3.50;;;;;;;;;;5096932;28;20478;-85
2022/01/27 13:59:29;;;;;;;11.40;3.35;;;;;;;;;;5072007;28;20089;-84
2022/01/27 14:02:14;;;;;;;15.18;3.47;;;;;;;;;;5078072;28;20034;-84
2022/01/27 14:04:47;;;;;;;10.98;3.35;;;;;;;;;;5060234;28;20106;-84
2022/01/27 14:07:23;;;;;;;15.90;3.40;;;;;;;;;;5060264;28;20039;-84
2022/01/27 14:09:51;;;;;;;11.05;3.10;;;;;;;;;;5094666;28;20119;-84
2022/01/27 14:12:21;;;;;;;19.05;3.42;;;;;;;;;;5059656;28;20044;-85
2022/01/27 14:14:51;;;;;;;15.07;4.03;;;;;;;;;;5066617;28;20043;-85
2022/01/27 14:17:18;;;;;;;17.40;3.70;;;;;;;;;;5074896;28;20032;-85
2022/01/27 14:19:44;;;;;;;23.60;3.20;;;;;;;;;;5112171;28;20023;-82
2022/01/27 14:22:15;;;;;;;15.05;3.22;;;;;;;;;;5100547;28;20036;-82
2022/01/27 14:24:57;;;;;;;12.88;2.92;;;;;;;;;;5080240;28;20040;-85
2022/01/27 14:27:31;;;;;;;10.38;2.65;;;;;;;;;;5095462;28;20046;-86
2022/01/27 14:29:57;;;;;;;13.98;3.78;;;;;;;;;;5060577;28;20048;-85
2022/01/27 14:32:23;;;;;;;15.60;3.47;;;;;;;;;;5076971;28;20127;-86
2022/01/27 14:34:49;;;;;;;16.20;3.78;;;;;;;;;;5059849;28;20513;-85
2022/01/27 14:37:15;;;;;;;13.20;3.50;;;;;;;;;;5094910;28;20040;-84
2022/01/27 14:39:41;;;;;;;16.83;3.53;;;;;;;;;;5095071;28;20433;-85
2022/01/27 14:42:10;;;;;;;12.65;2.97;;;;;;;;;;5059048;28;20040;-85
2022/01/27 14:44:36;;;;;;;12.68;3.65;;;;;;;;;;5078548;28;20040;-82
2022/01/27 14:47:05;;;;;;;15.02;4.30;;;;;;;;;;5084778;28;20073;-80
2022/01/27 14:49:31;;;;;;;16.77;3.33;;;;;;;;;;5078784;28;20047;-84
2022/01/27 14:51:57;;;;;;;16.42;4.57;;;;;;;;;;5095106;28;20040;-84
2022/01/27 14:54:23;;;;;;;10.75;2.70;;;;;;;;;;5077250;28;20403;-85
2022/01/27 14:56:55;;;;;;;16.17;3.33;;;;;;;;;;5061118;28;20044;-85
2022/01/27 14:59:28;;;;;;;19.02;3.67;;;;;;;;;;5060765;28;20072;-85
2022/01/27 15:01:54;;;;;;;15.82;3.55;;;;;;;;;;5060354;28;20067;-85
2022/01/27 15:04:23;;;;;;;18.33;3.53;;;;;;;;;;5059417;28;20070;-85
2022/01/27 15:06:49;;;;;;;14.07;3.20;;;;;;;;;;5052205;28;20047;-85
2022/01/27 15:09:15;;;;;;;17.15;3.10;;;;;;;;;;5063050;28;20048;-85
2022/01/27 15:11:41;;;;;;;19.55;3.78;;;;;;;;;;5106306;28;20060;-84
2022/01/27 15:19:46;;;;;;;17.98;4.15;;;;;;;;;;5078730;28;20506;-84
2022/01/27 15:22:12;;;;;;;17.65;3.63;;;;;;;;;;5059392;28;20422;-84
2022/01/27 15:24:41;;;;;;;17.73;3.47;;;;;;;;;;5085653;28;20048;-82
2022/01/27 15:27:07;;;;;;;16.75;3.13;;;;;;;;;;5089628;28;20085;-82
2022/01/27 15:29:35;;;;;;;16.33;3.80;;;;;;;;;;5060216;28;20042;-83
2022/01/27 15:32:03;;;;;;;12.68;2.80;;;;;;;;;;5059894;28;20479;-83
2022/01/27 15:34:29;;;;;;;16.52;3.08;;;;;;;;;;5076702;28;21261;-84
2022/01/27 15:36:55;;;;;;;18.05;3.35;;;;;;;;;;5050684;28;20036;-84
2022/01/27 15:39:24;;;;;;;13.57;3.40;;;;;;;;;;5060347;28;20448;-84
2022/01/27 15:41:51;;;;;;;17.30;3.03;;;;;;;;;;5059965;28;20501;-84
2022/01/27 15:44:17;;;;;;;17.48;2.85;;;;;;;;;;5059594;28;20071;-83
2022/01/27 15:46:44;;;;;;;17.92;3.30;;;;;;;;;;5059485;28;20062;-85
2022/01/27 15:49:10;;;;;;;13.68;3.15;;;;;;;;;;5060337;28;20055;-85
2022/01/27 15:51:54;;;;;;;14.90;3.53;;;;;;;;;;5060417;28;20040;-85
2022/01/27 15:54:21;;;;;;;11.98;3.38;;;;;;;;;;5094511;28;20046;-85
2022/01/27 15:56:49;;;;;;;14.63;3.40;;;;;;;;;;5094754;28;20032;-85
2022/01/27 15:59:15;;;;;;;16.23;3.53;;;;;;;;;;5056631;28;20395;-84
2022/01/27 16:01:41;;;;;;;14.30;4.32;;;;;;;;;;5066510;28;20037;-85
2022/01/27 16:04:09;;;;;;;17.08;3.63;;;;;;;;;;5072901;28;20092;-84
2022/01/27 16:06:37;;;;;;;15.93;3.78;;;;;;;;;;5073736;28;20514;-84
2022/01/27 16:09:05;;;;;;;15.40;3.35;;;;;;;;;;5057895;28;20089;-84
2022/01/27 16:11:31;;;;;;;15.07;3.53;;;;;;;;;;5057851;28;20052;-84
2022/01/27 16:13:57;;;;;;;19.48;3.42;;;;;;;;;;5092123;28;20043;-85
2022/01/27 16:16:24;;;;;;;18.08;3.42;;;;;;;;;;5074175;28;20036;-85
2022/01/27 16:18:50;;;;;;;15.13;2.85;;;;;;;;;;5058978;28;20097;-85
2022/01/27 16:21:16;;;;;;;14.98;3.15;;;;;;;;;;5073992;28;20102;-85
2022/01/27 16:23:42;;;;;;;18.67;3.22;;;;;;;;;;5061264;28;20052;-81
2022/01/27 16:26:14;;;;;;;14.77;3.40;;;;;;;;;;5074297;28;20029;-83
2022/01/27 16:28:47;;;;;;;12.68;3.05;;;;;;;;;;5076678;28;20044;-82
2022/01/27 16:31:16;;;;;;;14.40;3.05;;;;;;;;;;5084380;28;20483;-85
2022/01/27 16:33:48;;;;;;;13.85;2.95;;;;;;;;;;5057130;28;20032;-85
2022/01/27 16:36:14;;;;;;;15.98;2.92;;;;;;;;;;5056507;28;20503;-84
2022/01/27 16:38:40;;;;;;;13.57;3.13;;;;;;;;;;5071483;28;20047;-85
2022/01/27 16:41:06;;;;;;;16.10;2.90;;;;;;;;;;5049859;28;20487;-84
2022/01/27 16:43:33;;;;;;;18.42;4.32;;;;;;;;;;5057111;28;20123;-84
2022/01/27 16:46:01;;;;;;;17.27;3.30;;;;;;;;;;5051924;28;20119;-84
2022/01/27 16:48:32;;;;;;;13.13;3.10;;;;;;;;;;5042611;28;20040;-84
2022/01/27 16:51:38;;;;;;;15.60;2.92;;;;;;;;;;5088740;28;20447;-84
2022/01/27 16:54:17;;;;;;;15.07;3.22;;;;;;;;;;5090067;28;20048;-83
2022/01/27 16:57:15;;;;;;;12.95;3.00;;;;;;;;;;5076825;28;20040;-84
2022/01/27 16:59:43;;;;;;;17.65;3.38;;;;;;;;;;5057603;28;20036;-84
2022/01/27 17:02:18;;;;;;;16.27;3.45;;;;;;;;;;5067099;28;20490;-84
2022/01/27 17:04:44;;;;;;;20.48;3.47;;;;;;;;;;5054988;28;20036;-84
2022/01/27 17:07:18;;;;;;;17.35;2.63;;;;;;;;;;5076008;28;20436;-84
2022/01/27 17:09:47;;;;;;;16.75;2.95;;;;;;;;;;5077492;28;20047;-84
2022/01/27 17:12:29;;;;;;;18.85;3.42;;;;;;;;;;5060463;28;20040;-84
2022/01/27 17:14:58;;;;;;;15.95;2.83;;;;;;;;;;5074911;28;20055;-84
2022/01/27 17:17:28;;;;;;;17.05;3.17;;;;;;;;;;5053400;28;20032;-84
2022/01/27 17:20:17;;;;;;;16.08;3.33;;;;;;;;;;5086354;28;20609;-84
2022/01/27 17:22:52;;;;;;;16.48;3.92;;;;;;;;;;5086514;28;20127;-84
2022/01/27 17:26:11;;;;;;;11.40;3.45;;;;;;;;;;5052417;28;20045;-83
2022/01/27 17:28:38;;;;;;;18.90;4.57;;;;;;;;;;5025975;28;20045;-83
2022/01/27 17:31:38;;;;;;;17.67;2.97;;;;;;;;;;5031889;28;20208;-83
2022/01/27 17:38:05;;;;;;;15.95;3.38;;;;;;;;;;5057273;28;20047;-82
2022/01/27 17:41:13;;;;;;;12.70;2.97;;;;;;;;;;5034026;28;20508;-84
2022/01/27 17:53:58;;;;;;;14.80;3.33;;;;;;;;;;5053757;28;20060;-84
2022/01/27 17:56:37;;;;;;;21.48;3.65;;;;;;;;;;5016217;28;20450;-84
2022/01/27 17:59:38;;;;;;;23.02;4.10;;;;;;;;;;5000152;28;20512;-84
2022/01/27 18:02:44;;;;;;;15.88;3.42;;;;;;;;;;5036534;28;20032;-85
2022/01/27 18:05:49;;;;;;;19.08;2.97;;;;;;;;;;5057278;28;20040;-85
2022/01/27 18:08:57;;;;;;;12.23;3.08;;;;;;;;;;5081875;28;20047;-85
2022/01/27 18:15:08;;;;;;;16.60;3.35;;;;;;;;;;5088617;28;20051;-85
2022/01/27 18:21:36;;;;;;;19.60;3.75;;;;;;;;;;5047804;28;20139;-85
2022/01/27 18:24:04;;;;;;;18.40;3.45;;;;;;;;;;4989839;28;20088;-84
2022/01/27 18:26:30;;;;;;;14.80;3.90;;;;;;;;;;4999534;28;20060;-84
2022/01/27 18:28:57;;;;;;;20.42;3.70;;;;;;;;;;5015214;28;20053;-85
2022/01/27 18:31:26;;;;;;;17.60;4.00;;;;;;;;;;5001085;28;20138;-84
2022/01/27 18:34:21;;;;;;;;;;;;;;;;;;;;;
2022/01/27 18:37:47;;;;;;;17.63;4.07;;;;;;;;;;4935266;29;20069;-84
2022/01/27 18:43:42;;;;;;;18.08;3.65;;;;;;;;;;4984792;28;19917;-86